Atkinson, Nebraska
Current Conditions -  °F | °C
As of 4:55 AM on Friday 31 Oct 2014 (Local Time) from KONL Reporting Station
Clear Clear  
Wind Chill: -8°   Ceiling: Unl
Heat Index: -4°   Visibility: 10mi
Dew Point: -6°   Wind: 6mph
Humidity: 89%   Direction: 350°N
Pressure: 30.55"   Gusts: NA
Location:  42.53°N, 98.98°W
Report Text: KONL 310955Z AUTO 35005KT 10SM CLR M04/M06 A3055 RMK AO2 T10451061
Loading
Personal Weather Stations






























Interactive Weather Map
Tropical Storm Tracking
New forecast layout! Learn more

10-Day Weather Forecast

Advertisements
Track Severe Weather on mobile